createdAt,value
2018-04-06T00:02:04.885Z,6.80
2018-04-06T00:04:33.290Z,5.57
2018-04-06T00:07:01.784Z,5.83
2018-04-06T00:09:30.537Z,5.30
2018-04-06T00:12:00.613Z,6.40
2018-04-06T00:14:29.493Z,6.30
2018-04-06T00:16:58.393Z,5.80
2018-04-06T00:19:26.742Z,5.93
2018-04-06T00:21:56.102Z,5.50
2018-04-06T00:24:24.685Z,5.77
2018-04-06T00:26:53.489Z,6.07
2018-04-06T00:29:22.372Z,6.37
2018-04-06T00:31:51.465Z,5.30
2018-04-06T00:34:20.585Z,5.93
2018-04-06T00:36:48.861Z,6.27
2018-04-06T00:39:17.156Z,5.60
2018-04-06T00:41:45.673Z,6.40
2018-04-06T00:44:14.573Z,8.80
2018-04-06T00:46:42.854Z,8.07
2018-04-06T00:49:11.173Z,8.07
2018-04-06T00:51:39.607Z,6.17
2018-04-06T00:54:08.591Z,7.10
2018-04-06T00:56:37.792Z,8.00
2018-04-06T00:59:06.072Z,7.30
2018-04-06T01:01:35.669Z,6.30
2018-04-06T01:04:04.001Z,6.70
2018-04-06T01:06:32.362Z,6.50
2018-04-06T01:09:00.890Z,5.83
2018-04-06T01:11:29.787Z,6.70
2018-04-06T01:13:58.870Z,6.60
2018-04-06T01:16:27.316Z,6.30
2018-04-06T01:18:55.697Z,6.43
2018-04-06T01:21:24.040Z,6.73
2018-04-06T01:23:52.958Z,6.47
2018-04-06T01:26:23.345Z,7.43
2018-04-06T01:28:51.964Z,7.13
2018-04-06T01:31:22.062Z,7.00
2018-04-06T01:33:51.028Z,6.63
2018-04-06T01:36:19.461Z,7.23
2018-04-06T01:38:47.922Z,7.00
2018-04-06T01:41:17.224Z,6.73
2018-04-06T01:43:45.749Z,7.40
2018-04-06T01:46:14.169Z,6.67
2018-04-06T01:48:42.504Z,7.30
2018-04-06T01:51:11.385Z,8.20
2018-04-06T01:53:40.655Z,7.67
2018-04-06T01:56:10.436Z,7.13
2018-04-06T01:58:38.723Z,7.07
2018-04-06T02:01:07.013Z,7.03
2018-04-06T02:03:35.346Z,7.10
2018-04-06T02:06:05.131Z,7.50
2018-04-06T02:08:34.888Z,7.03
2018-04-06T02:11:03.224Z,7.70
2018-04-06T02:13:32.263Z,8.53
2018-04-06T02:16:00.908Z,6.17
2018-04-06T02:18:31.463Z,8.20
2018-04-06T02:21:00.042Z,6.77
2018-04-06T02:23:28.723Z,8.00
2018-04-06T02:25:57.009Z,8.83
2018-04-06T02:28:25.628Z,8.80
2018-04-06T02:30:53.912Z,9.13
2018-04-06T02:33:22.198Z,7.43
2018-04-06T02:35:51.937Z,8.83
2018-04-06T02:38:20.558Z,8.80
2018-04-06T02:40:49.400Z,6.93
2018-04-06T02:43:18.203Z,6.50
2018-04-06T02:45:46.540Z,8.50
2018-04-06T02:48:14.982Z,7.60
2018-04-06T02:50:43.264Z,6.70
2018-04-06T02:53:11.551Z,7.97
2018-04-06T02:55:41.379Z,10.70
2018-04-06T02:58:10.604Z,7.97
2018-04-06T03:00:38.914Z,8.67
2018-04-06T03:03:07.293Z,7.62
2018-04-06T03:05:37.258Z,10.00
2018-04-06T03:08:05.550Z,10.17
2018-04-06T03:10:34.504Z,9.87
2018-04-06T03:13:02.788Z,9.77
2018-04-06T03:15:31.081Z,11.38
2018-04-06T03:18:00.808Z,11.10
2018-04-06T03:20:29.916Z,11.30
2018-04-06T03:23:00.145Z,8.07
2018-04-06T03:25:28.462Z,9.43
2018-04-06T03:27:57.052Z,9.87
2018-04-06T03:30:27.109Z,11.00
2018-04-06T03:32:56.155Z,11.50
2018-04-06T03:35:24.451Z,15.70
2018-04-06T03:37:53.853Z,13.50
2018-04-06T03:40:22.944Z,11.80
2018-04-06T03:42:52.541Z,13.48
2018-04-06T03:45:20.854Z,11.50
2018-04-06T03:47:49.253Z,11.27
2018-04-06T03:50:17.559Z,10.38
2018-04-06T03:52:45.880Z,10.47
2018-04-06T03:55:14.181Z,12.27
2018-04-06T03:57:43.328Z,10.47
2018-04-06T04:00:11.627Z,11.30
2018-04-06T04:02:39.929Z,9.73
2018-04-06T04:05:10.013Z,11.53
2018-04-06T04:07:39.552Z,11.60
2018-04-06T04:10:08.829Z,12.47
2018-04-06T04:12:37.938Z,15.77
2018-04-06T04:15:06.856Z,13.00
2018-04-06T04:17:35.152Z,15.60
2018-04-06T04:20:03.520Z,15.73
2018-04-06T04:22:32.125Z,15.50
2018-04-06T04:25:00.412Z,13.43
2018-04-06T04:27:29.137Z,12.77
2018-04-06T04:29:57.629Z,11.10
2018-04-06T04:32:26.736Z,13.50
2018-04-06T04:34:55.680Z,13.73
2018-04-06T04:37:23.988Z,11.93
2018-04-06T04:39:53.055Z,11.82
2018-04-06T04:42:21.477Z,15.77
2018-04-06T04:44:49.794Z,17.48
2018-04-06T04:47:19.386Z,15.43
2018-04-06T04:49:47.901Z,15.07
2018-04-06T04:52:16.193Z,14.27
2018-04-06T04:54:44.612Z,19.27
2018-04-06T04:57:12.918Z,14.40
2018-04-06T04:59:41.304Z,15.82
2018-04-06T05:02:10.149Z,16.27
2018-04-06T05:04:39.244Z,15.20
2018-04-06T05:07:08.191Z,14.50
2018-04-06T05:09:37.025Z,12.83
2018-04-06T05:12:05.337Z,14.57
2018-04-06T05:14:33.633Z,13.47
2018-04-06T05:17:02.784Z,12.63
2018-04-06T05:19:32.040Z,13.30
2018-04-06T05:22:00.402Z,15.47
2018-04-06T05:24:28.750Z,14.93
2018-04-06T05:26:57.013Z,13.53
2018-04-06T05:29:25.792Z,12.73
2018-04-06T05:31:56.456Z,11.70
2018-04-06T05:34:24.801Z,11.93
2018-04-06T05:36:53.103Z,11.77
2018-04-06T05:39:22.210Z,11.97
2018-04-06T05:41:50.533Z,11.30
2018-04-06T05:44:18.813Z,12.70
2018-04-06T05:46:47.097Z,9.93
2018-04-06T05:49:16.201Z,11.60
2018-04-06T05:51:45.256Z,10.73
2018-04-06T05:54:13.540Z,10.10
2018-04-06T05:56:41.861Z,9.80
2018-04-06T05:59:10.160Z,10.43
2018-04-06T06:01:38.500Z,11.30
2018-04-06T06:04:06.800Z,10.33
2018-04-06T06:06:35.109Z,9.63
2018-04-06T06:09:03.453Z,10.90
2018-04-06T06:11:31.757Z,10.67
2018-04-06T06:14:00.057Z,10.30
2018-04-06T06:16:28.388Z,9.47
2018-04-06T06:18:56.677Z,10.77
2018-04-06T06:21:24.957Z,8.80
2018-04-06T06:23:53.276Z,9.80
2018-04-06T06:26:21.574Z,10.73
2018-04-06T06:28:51.049Z,10.33
2018-04-06T06:31:19.384Z,9.83
2018-04-06T06:33:47.665Z,11.17
2018-04-06T06:36:15.959Z,12.07
2018-04-06T06:38:44.582Z,13.60
2018-04-06T06:41:12.873Z,11.07
2018-04-06T06:43:41.943Z,10.20
2018-04-06T06:46:10.306Z,10.73
2018-04-06T06:48:38.612Z,11.87
2018-04-06T06:51:12.557Z,11.50
2018-04-06T06:53:40.857Z,12.47
2018-04-06T06:56:09.152Z,11.80
2018-04-06T06:58:37.497Z,12.20
2018-04-06T07:01:05.785Z,11.80
2018-04-06T07:03:34.078Z,11.17
2018-04-06T07:06:02.508Z,12.00
2018-04-06T07:08:30.552Z,10.87
2018-04-06T07:10:58.843Z,11.07
2018-04-06T07:13:27.169Z,12.30
2018-04-06T07:15:55.465Z,11.77
2018-04-06T07:18:23.781Z,11.30
2018-04-06T07:20:52.964Z,8.03
2018-04-06T07:23:21.276Z,10.30
2018-04-06T07:25:49.593Z,9.00
2018-04-06T07:28:17.885Z,9.40
2018-04-06T07:30:45.860Z,10.70
2018-04-06T07:33:14.226Z,10.13
2018-04-06T07:35:42.525Z,9.60
2018-04-06T07:38:10.812Z,10.97
2018-04-06T07:40:39.917Z,9.10
2018-04-06T07:43:08.968Z,10.47
2018-04-06T07:45:37.259Z,7.70
2018-04-06T07:48:05.607Z,9.13
2018-04-06T07:50:33.896Z,8.47
2018-04-06T07:53:02.185Z,8.17
2018-04-06T07:55:30.502Z,8.30
2018-04-06T07:57:58.797Z,8.70
2018-04-06T08:00:27.160Z,8.40
2018-04-06T08:02:55.453Z,9.13
2018-04-06T08:05:23.744Z,7.40
2018-04-06T08:07:52.072Z,9.63
2018-04-06T08:10:20.377Z,7.43
2018-04-06T08:12:48.680Z,8.80
2018-04-06T08:15:17.004Z,9.67
2018-04-06T08:17:46.057Z,8.83
2018-04-06T08:20:14.362Z,7.40
2018-04-06T08:22:42.709Z,8.87
2018-04-06T08:25:11.009Z,6.70
2018-04-06T08:27:39.064Z,8.30
2018-04-06T08:30:07.180Z,7.60
2018-04-06T08:32:35.509Z,8.00
2018-04-06T08:35:03.795Z,7.47
2018-04-06T08:37:32.084Z,8.27
2018-04-06T08:40:00.408Z,8.63
2018-04-06T08:42:28.835Z,8.67
2018-04-06T08:44:57.136Z,9.53
2018-04-06T08:47:25.445Z,9.60
2018-04-06T08:49:53.740Z,8.53
2018-04-06T08:52:22.168Z,9.07
2018-04-06T08:54:50.482Z,6.73
2018-04-06T08:57:19.517Z,8.57
2018-04-06T08:59:47.854Z,8.27
2018-04-06T09:02:16.149Z,7.70
2018-04-06T09:04:44.490Z,7.90
2018-04-06T09:07:12.902Z,8.10
2018-04-06T09:09:41.201Z,8.80
2018-04-06T09:12:09.488Z,8.87
2018-04-06T09:14:37.830Z,7.07
2018-04-06T09:17:06.125Z,8.37
2018-04-06T09:19:35.177Z,5.87
2018-04-06T09:22:03.492Z,7.80
2018-04-06T09:24:31.778Z,7.30
2018-04-06T09:27:00.054Z,6.97
2018-04-06T09:29:28.377Z,7.17
2018-04-06T09:31:57.433Z,6.43
2018-04-06T09:34:25.728Z,7.10
2018-04-06T09:36:54.072Z,9.00
2018-04-06T09:39:22.372Z,8.47
2018-04-06T09:41:50.742Z,7.60
2018-04-06T09:44:19.096Z,7.17
2018-04-06T09:46:47.385Z,7.07
2018-04-06T09:49:15.676Z,7.70
2018-04-06T09:51:44.093Z,8.00
2018-04-06T09:54:13.146Z,7.77
2018-04-06T09:56:41.449Z,8.10
2018-04-06T09:59:09.773Z,6.57
2018-04-06T10:01:38.068Z,5.23
2018-04-06T10:04:06.352Z,6.33
2018-04-06T10:06:34.660Z,7.47
2018-04-06T10:09:02.941Z,9.10
2018-04-06T10:11:31.289Z,7.00
2018-04-06T10:13:59.568Z,6.60
2018-04-06T10:16:27.870Z,8.37
2018-04-06T10:18:56.281Z,7.80
2018-04-06T10:21:24.584Z,7.40
2018-04-06T10:23:52.883Z,7.80
2018-04-06T10:26:21.281Z,7.63
2018-04-06T10:28:49.584Z,7.90
2018-04-06T10:31:17.897Z,7.57
2018-04-06T10:33:47.015Z,7.67
2018-04-06T10:36:15.802Z,7.77
2018-04-06T10:38:44.596Z,7.67
2018-04-06T10:41:13.221Z,6.53
2018-04-06T10:43:41.513Z,7.33
2018-04-06T10:46:10.108Z,6.67
2018-04-06T10:48:38.703Z,7.90
2018-04-06T10:51:07.015Z,6.77
2018-04-06T10:53:36.086Z,8.53
2018-04-06T10:56:06.349Z,7.10
2018-04-06T10:58:34.659Z,6.73
2018-04-06T11:01:02.966Z,8.17
2018-04-06T11:03:31.613Z,7.27
2018-04-06T11:05:59.901Z,7.33
2018-04-06T11:08:28.209Z,6.70
2018-04-06T11:10:56.568Z,6.70
2018-04-06T11:13:25.409Z,6.60
2018-04-06T11:15:54.466Z,6.50
2018-04-06T11:18:22.753Z,6.03
2018-04-06T11:20:51.485Z,6.67
2018-04-06T11:23:20.537Z,8.20
2018-04-06T11:25:49.352Z,5.57
2018-04-06T11:28:17.996Z,6.37
2018-04-06T11:30:46.932Z,7.23
2018-04-06T11:33:16.013Z,6.60
2018-04-06T11:35:44.332Z,5.60
2018-04-06T11:38:12.618Z,6.43
2018-04-06T11:40:40.914Z,5.80
2018-04-06T11:43:09.813Z,5.50
2018-04-06T11:45:38.250Z,7.00
2018-04-06T11:48:08.766Z,6.33
2018-04-06T11:50:38.005Z,5.53
2018-04-06T11:53:06.729Z,6.37
2018-04-06T11:55:36.081Z,7.93
2018-04-06T11:58:05.985Z,6.30
2018-04-06T12:00:34.308Z,7.80
2018-04-06T12:03:02.609Z,7.90
2018-04-06T12:05:31.665Z,6.07
2018-04-06T12:08:00.023Z,8.10
2018-04-06T12:10:29.160Z,5.80
2018-04-06T12:12:57.657Z,7.20
2018-04-06T12:15:26.713Z,7.70
2018-04-06T12:17:55.002Z,7.10
2018-04-06T12:20:23.733Z,6.43
2018-04-06T12:22:52.170Z,8.20
2018-04-06T12:25:20.458Z,8.33
2018-04-06T12:27:48.753Z,8.17
2018-04-06T12:30:17.181Z,7.77
2018-04-06T12:32:45.466Z,5.83
2018-04-06T12:35:13.762Z,7.53
2018-04-06T12:37:42.250Z,7.90
2018-04-06T12:40:10.557Z,7.70
2018-04-06T12:42:38.913Z,7.27
2018-04-06T12:45:07.200Z,7.60
2018-04-06T12:47:35.496Z,7.63
2018-04-06T12:50:04.609Z,8.33
2018-04-06T12:52:32.899Z,9.30
2018-04-06T12:55:01.194Z,7.13
2018-04-06T12:57:29.530Z,7.87
2018-04-06T12:59:57.824Z,8.50
2018-04-06T13:02:26.133Z,7.80
2018-04-06T13:04:54.479Z,7.33
2018-04-06T13:07:22.775Z,8.10
2018-04-06T13:09:51.067Z,7.93
2018-04-06T13:12:19.407Z,8.40
2018-04-06T13:14:47.693Z,7.50
2018-04-06T13:17:15.984Z,8.73
2018-04-06T13:19:44.336Z,8.40
2018-04-06T13:22:12.629Z,8.93
2018-04-06T13:24:40.925Z,8.87
2018-04-06T13:27:09.273Z,8.53
2018-04-06T13:29:37.561Z,7.83
2018-04-06T13:32:05.851Z,9.43
2018-04-06T13:34:34.177Z,9.00
2018-04-06T13:37:03.229Z,8.90
2018-04-06T13:39:31.512Z,7.80
2018-04-06T13:41:59.829Z,9.37
2018-04-06T13:44:28.960Z,9.40
2018-04-06T13:46:57.301Z,9.30
2018-04-06T13:49:25.589Z,9.37
2018-04-06T13:51:53.884Z,8.23
2018-04-06T13:54:22.253Z,8.87
2018-04-06T13:56:50.633Z,8.97
2018-04-06T13:59:18.942Z,8.70
2018-04-06T14:01:47.284Z,14.50
2018-04-06T14:04:15.588Z,9.97
2018-04-06T14:06:43.890Z,9.33
2018-04-06T14:09:12.238Z,9.13
2018-04-06T14:11:40.536Z,8.60
2018-04-06T14:14:08.956Z,9.07
2018-04-06T14:16:38.177Z,8.57
2018-04-06T14:19:07.321Z,8.07
2018-04-06T14:21:35.820Z,8.03
2018-04-06T14:24:05.349Z,9.00
2018-04-06T14:26:33.662Z,7.10
2018-04-06T14:29:02.067Z,9.10
2018-04-06T14:31:30.368Z,8.03
2018-04-06T14:33:58.660Z,7.80
2018-04-06T14:36:26.983Z,8.10
2018-04-06T14:38:55.541Z,8.77
2018-04-06T14:41:24.764Z,8.37
2018-04-06T14:43:53.191Z,7.70
2018-04-06T14:46:21.448Z,7.67
2018-04-06T14:48:49.735Z,8.30
2018-04-06T14:51:18.180Z,7.97
2018-04-06T14:53:46.481Z,7.23
2018-04-06T14:56:15.447Z,7.17
2018-04-06T14:58:47.108Z,7.93
2018-04-06T15:01:15.401Z,7.30
2018-04-06T15:03:44.321Z,7.80
2018-04-06T15:06:12.788Z,8.03
2018-04-06T15:08:41.130Z,8.13
2018-04-06T15:11:09.905Z,6.33
2018-04-06T15:13:38.761Z,9.13
2018-04-06T15:16:07.110Z,8.50
2018-04-06T15:18:35.821Z,7.97
2018-04-06T15:21:04.290Z,7.17
2018-04-06T15:23:32.750Z,7.90
2018-04-06T15:26:01.040Z,8.37
2018-04-06T15:28:30.020Z,7.80
2018-04-06T15:31:00.085Z,7.20
2018-04-06T15:33:28.628Z,8.33
2018-04-06T15:35:57.401Z,6.47
2018-04-06T15:38:25.721Z,7.77
2018-04-06T15:40:54.773Z,8.20
2018-04-06T15:43:23.228Z,8.03
2018-04-06T15:45:51.509Z,7.57
2018-04-06T15:48:19.808Z,7.57
2018-04-06T15:50:48.148Z,7.60
2018-04-06T15:53:16.448Z,7.80
2018-04-06T15:55:44.751Z,7.87
2018-04-06T15:58:13.096Z,8.80
2018-04-06T16:00:41.400Z,8.33
2018-04-06T16:03:09.731Z,8.43
2018-04-06T16:05:38.102Z,5.40
2018-04-06T16:08:06.492Z,7.57
2018-04-06T16:10:34.788Z,6.77
2018-04-06T16:13:03.140Z,8.00
2018-04-06T16:15:32.201Z,7.30
2018-04-06T16:18:00.492Z,9.13
2018-04-06T16:20:29.944Z,7.60
2018-04-06T16:22:59.053Z,7.53
2018-04-06T16:25:27.360Z,8.13
2018-04-06T16:27:55.696Z,8.07
2018-04-06T16:30:23.997Z,7.60
2018-04-06T16:32:52.440Z,7.53
2018-04-06T16:35:20.748Z,7.50
2018-04-06T16:37:49.045Z,7.50
2018-04-06T16:40:17.381Z,7.60
2018-04-06T16:42:45.685Z,8.07
2018-04-06T16:45:13.981Z,7.40
2018-04-06T16:47:42.327Z,6.80
2018-04-06T16:50:10.609Z,8.27
2018-04-06T16:52:38.898Z,7.83
2018-04-06T16:55:07.217Z,8.00
2018-04-06T16:57:35.504Z,8.80
2018-04-06T17:00:03.836Z,7.90
2018-04-06T17:02:32.134Z,7.60
2018-04-06T17:05:01.214Z,8.40
2018-04-06T17:07:29.556Z,7.83
2018-04-06T17:09:57.856Z,6.73
2018-04-06T17:12:26.144Z,7.47
2018-04-06T17:14:54.480Z,7.60
2018-04-06T17:17:22.777Z,7.23
2018-04-06T17:19:51.180Z,8.33
2018-04-06T17:22:19.453Z,9.00
2018-04-06T17:24:47.746Z,8.30
2018-04-06T17:27:15.850Z,8.00
2018-04-06T17:29:44.149Z,7.83
2018-04-06T17:32:12.452Z,8.20
2018-04-06T17:34:40.845Z,7.97
2018-04-06T17:37:10.254Z,7.07
2018-04-06T17:39:39.734Z,8.20
2018-04-06T17:42:08.850Z,8.30
2018-04-06T17:44:37.137Z,8.07
2018-04-06T17:47:05.425Z,7.50
2018-04-06T17:49:33.864Z,6.93
2018-04-06T17:52:02.657Z,6.43
2018-04-06T17:54:31.129Z,8.60
2018-04-06T17:56:59.451Z,9.93
2018-04-06T17:59:27.754Z,7.23
2018-04-06T18:01:56.055Z,6.97
2018-04-06T18:04:24.402Z,7.23
2018-04-06T18:06:52.694Z,6.90
2018-04-06T18:09:21.010Z,7.10
2018-04-06T18:11:49.356Z,7.27
2018-04-06T18:14:17.648Z,8.00
2018-04-06T18:16:45.953Z,8.37
2018-04-06T18:19:14.368Z,7.00
2018-04-06T18:21:42.658Z,7.47
2018-04-06T18:24:10.960Z,6.97
2018-04-06T18:26:39.593Z,7.10
2018-04-06T18:29:07.893Z,8.03
2018-04-06T18:31:36.201Z,7.13
2018-04-06T18:34:04.540Z,8.10
2018-04-06T18:36:32.845Z,7.27
2018-04-06T18:39:01.137Z,8.20
2018-04-06T18:41:29.500Z,7.13
2018-04-06T18:43:57.786Z,8.10
2018-04-06T18:46:26.328Z,7.60
2018-04-06T18:48:54.656Z,7.83
2018-04-06T18:51:22.977Z,8.73
2018-04-06T18:53:51.264Z,7.43
2018-04-06T18:56:19.596Z,7.80
2018-04-06T18:58:47.907Z,8.30
2018-04-06T19:01:16.980Z,8.83
2018-04-06T19:03:45.427Z,8.63
2018-04-06T19:06:14.469Z,7.17
2018-04-06T19:08:44.381Z,7.27
2018-04-06T19:11:14.469Z,8.00
2018-04-06T19:13:42.760Z,7.33
2018-04-06T19:16:11.064Z,7.70
2018-04-06T19:18:39.432Z,7.50
2018-04-06T19:21:07.733Z,8.50
2018-04-06T19:23:36.126Z,9.07
2018-04-06T19:26:04.865Z,7.10
2018-04-06T19:28:33.925Z,7.67
2018-04-06T19:31:02.258Z,8.43
2018-04-06T19:33:30.573Z,9.90
2018-04-06T19:35:59.464Z,7.67
2018-04-06T19:38:27.967Z,9.10
2018-04-06T19:40:58.496Z,8.87
2018-04-06T19:43:27.320Z,8.40
2018-04-06T19:45:56.673Z,9.13
2018-04-06T19:48:26.752Z,8.33
2018-04-06T19:50:55.290Z,9.67
2018-04-06T19:53:23.585Z,9.70
2018-04-06T19:55:51.897Z,9.40
2018-04-06T19:58:20.261Z,9.10
2018-04-06T20:00:49.330Z,8.57
2018-04-06T20:03:17.641Z,9.37
2018-04-06T20:05:45.973Z,9.27
2018-04-06T20:08:14.296Z,9.00
2018-04-06T20:10:42.717Z,8.20
2018-04-06T20:13:11.015Z,10.03
2018-04-06T20:15:39.301Z,8.80
2018-04-06T20:18:07.657Z,8.70
2018-04-06T20:20:35.957Z,9.37
2018-04-06T20:23:04.249Z,10.00
2018-04-06T20:25:33.340Z,9.20
2018-04-06T20:28:02.417Z,7.60
2018-04-06T20:30:30.728Z,10.23
2018-04-06T20:32:59.839Z,8.10
2018-04-06T20:35:28.129Z,8.67
2018-04-06T20:37:56.446Z,8.87
2018-04-06T20:40:24.785Z,8.67
2018-04-06T20:42:53.168Z,8.70
2018-04-06T20:45:21.473Z,9.03
2018-04-06T20:47:49.831Z,7.70
2018-04-06T20:50:18.162Z,9.03
2018-04-06T20:52:47.227Z,8.83
2018-04-06T20:55:15.526Z,8.70
2018-04-06T20:57:44.857Z,8.73
2018-04-06T21:00:13.151Z,9.27
2018-04-06T21:02:41.448Z,9.40
2018-04-06T21:05:09.881Z,8.17
2018-04-06T21:07:38.186Z,9.40
2018-04-06T21:10:06.496Z,9.20
2018-04-06T21:12:34.832Z,9.43
2018-04-06T21:15:03.129Z,9.03
2018-04-06T21:17:31.469Z,10.73
2018-04-06T21:19:59.777Z,9.73
2018-04-06T21:22:28.121Z,9.47
2018-04-06T21:24:56.413Z,9.03
2018-04-06T21:27:25.072Z,9.00
2018-04-06T21:29:53.652Z,8.33
2018-04-06T21:32:22.471Z,9.07
2018-04-06T21:34:52.006Z,9.70
2018-04-06T21:37:21.456Z,9.50
2018-04-06T21:39:49.849Z,8.60
2018-04-06T21:42:18.925Z,9.03
2018-04-06T21:44:48.238Z,9.93
2018-04-06T21:47:17.042Z,9.33
2018-04-06T21:49:45.379Z,8.57
2018-04-06T21:52:14.445Z,9.57
2018-04-06T21:54:42.732Z,9.93
2018-04-06T21:57:11.801Z,10.20
2018-04-06T21:59:40.177Z,10.43
2018-04-06T22:02:09.169Z,9.63
2018-04-06T22:04:37.465Z,7.20
2018-04-06T22:07:06.565Z,8.67
2018-04-06T22:09:35.777Z,8.03
2018-04-06T22:12:04.752Z,8.90
2018-04-06T22:14:34.942Z,6.73
2018-04-06T22:17:03.800Z,8.53
2018-04-06T22:19:32.890Z,8.70
2018-04-06T22:22:01.902Z,7.97
2018-04-06T22:24:30.344Z,8.20
2018-04-06T22:26:59.322Z,8.77
2018-04-06T22:29:27.719Z,9.37
2018-04-06T22:31:56.097Z,9.77
2018-04-06T22:34:24.580Z,10.47
2018-04-06T22:36:53.573Z,9.23
2018-04-06T22:39:22.486Z,8.80
2018-04-06T22:41:50.775Z,8.57
2018-04-06T22:44:19.116Z,10.07
2018-04-06T22:46:47.413Z,8.70
2018-04-06T22:49:16.425Z,9.03
2018-04-06T22:51:44.864Z,8.83
2018-04-06T22:54:13.744Z,9.47
2018-04-06T22:56:42.244Z,9.90
2018-04-06T22:59:11.081Z,8.33
2018-04-06T23:01:40.945Z,9.20
2018-04-06T23:04:09.369Z,7.43
2018-04-06T23:06:38.541Z,9.30
2018-04-06T23:09:06.836Z,9.40
2018-04-06T23:11:35.961Z,9.73
2018-04-06T23:14:05.244Z,8.40
2018-04-06T23:16:33.857Z,9.20
2018-04-06T23:19:02.160Z,9.43
2018-04-06T23:21:31.444Z,9.20
2018-04-06T23:23:59.729Z,10.07
2018-04-06T23:26:28.020Z,8.33
2018-04-06T23:28:56.861Z,9.63
2018-04-06T23:31:27.124Z,8.50
2018-04-06T23:33:56.953Z,9.47
2018-04-06T23:36:25.236Z,10.60
2018-04-06T23:38:53.753Z,10.40
2018-04-06T23:41:22.606Z,9.20
2018-04-06T23:43:51.373Z,10.70
2018-04-06T23:46:20.060Z,10.90
2018-04-06T23:48:48.769Z,9.50
2018-04-06T23:51:17.633Z,9.73
2018-04-06T23:53:45.922Z,10.43
2018-04-06T23:56:14.240Z,10.27
2018-04-06T23:58:44.145Z,10.00
